sensor_id;sensor_type;location;lat;lon;timestamp;P1;durP1;ratioP1;P2;durP2;ratioP2
14933;SDS011;7560;51.364;12.384;2023-07-31T00:01:07;4.38;;;2.00;;
14933;SDS011;7560;51.364;12.384;2023-07-31T00:06:09;3.42;;;1.80;;
14933;SDS011;7560;51.364;12.384;2023-07-31T00:11:11;3.40;;;1.60;;
14933;SDS011;7560;51.364;12.384;2023-07-31T00:16:12;4.78;;;1.88;;
14933;SDS011;7560;51.364;12.384;2023-07-31T00:21:14;4.85;;;1.90;;
14933;SDS011;7560;51.364;12.384;2023-07-31T00:26:16;6.03;;;1.80;;
14933;SDS011;7560;51.364;12.384;2023-07-31T00:31:18;5.15;;;1.75;;
14933;SDS011;7560;51.364;12.384;2023-07-31T00:36:20;4.43;;;2.10;;
14933;SDS011;7560;51.364;12.384;2023-07-31T00:41:21;3.13;;;1.60;;
14933;SDS011;7560;51.364;12.384;2023-07-31T00:46:23;3.72;;;2.03;;
14933;SDS011;7560;51.364;12.384;2023-07-31T00:51:25;4.15;;;1.90;;
14933;SDS011;7560;51.364;12.384;2023-07-31T00:56:28;8.57;;;2.10;;
14933;SDS011;7560;51.364;12.384;2023-07-31T01:01:30;3.78;;;1.85;;
14933;SDS011;7560;51.364;12.384;2023-07-31T01:12:13;5.88;;;1.70;;
14933;SDS011;7560;51.364;12.384;2023-07-31T01:17:16;3.28;;;1.88;;
14933;SDS011;7560;51.364;12.384;2023-07-31T01:22:23;2.72;;;1.73;;
14933;SDS011;7560;51.364;12.384;2023-07-31T01:27:35;3.35;;;1.85;;
14933;SDS011;7560;51.364;12.384;2023-07-31T01:32:43;6.20;;;1.70;;
14933;SDS011;7560;51.364;12.384;2023-07-31T01:37:52;3.58;;;1.80;;
14933;SDS011;7560;51.364;12.384;2023-07-31T01:42:55;7.97;;;2.20;;
14933;SDS011;7560;51.364;12.384;2023-07-31T01:47:57;6.30;;;2.33;;
14933;SDS011;7560;51.364;12.384;2023-07-31T01:52:58;4.75;;;1.95;;
14933;SDS011;7560;51.364;12.384;2023-07-31T01:58:00;4.65;;;2.15;;
14933;SDS011;7560;51.364;12.384;2023-07-31T02:03:02;5.28;;;2.00;;
14933;SDS011;7560;51.364;12.384;2023-07-31T02:08:04;5.05;;;1.95;;
14933;SDS011;7560;51.364;12.384;2023-07-31T02:13:07;4.22;;;2.00;;
14933;SDS011;7560;51.364;12.384;2023-07-31T02:18:09;3.58;;;2.00;;
14933;SDS011;7560;51.364;12.384;2023-07-31T02:23:10;5.90;;;2.20;;
14933;SDS011;7560;51.364;12.384;2023-07-31T02:28:12;3.28;;;1.95;;
14933;SDS011;7560;51.364;12.384;2023-07-31T02:33:14;4.20;;;1.80;;
14933;SDS011;7560;51.364;12.384;2023-07-31T02:38:17;3.35;;;1.70;;
14933;SDS011;7560;51.364;12.384;2023-07-31T02:43:19;3.05;;;1.85;;
14933;SDS011;7560;51.364;12.384;2023-07-31T02:48:21;8.10;;;1.92;;
14933;SDS011;7560;51.364;12.384;2023-07-31T02:53:23;5.25;;;1.90;;
14933;SDS011;7560;51.364;12.384;2023-07-31T02:58:24;3.88;;;1.88;;
14933;SDS011;7560;51.364;12.384;2023-07-31T03:03:26;3.10;;;1.95;;
14933;SDS011;7560;51.364;12.384;2023-07-31T03:08:28;4.13;;;1.90;;
14933;SDS011;7560;51.364;12.384;2023-07-31T03:13:30;3.33;;;1.92;;
14933;SDS011;7560;51.364;12.384;2023-07-31T03:18:31;3.13;;;1.63;;
14933;SDS011;7560;51.364;12.384;2023-07-31T03:23:33;4.45;;;2.10;;
14933;SDS011;7560;51.364;12.384;2023-07-31T03:28:35;4.38;;;1.75;;
14933;SDS011;7560;51.364;12.384;2023-07-31T03:33:37;5.80;;;2.05;;
14933;SDS011;7560;51.364;12.384;2023-07-31T03:38:38;3.60;;;2.10;;
14933;SDS011;7560;51.364;12.384;2023-07-31T03:43:40;4.78;;;2.00;;
14933;SDS011;7560;51.364;12.384;2023-07-31T03:48:42;4.47;;;1.85;;
14933;SDS011;7560;51.364;12.384;2023-07-31T03:53:44;3.30;;;1.92;;
14933;SDS011;7560;51.364;12.384;2023-07-31T03:58:45;4.25;;;2.10;;
14933;SDS011;7560;51.364;12.384;2023-07-31T04:03:47;4.38;;;2.13;;
14933;SDS011;7560;51.364;12.384;2023-07-31T04:08:49;3.25;;;2.03;;
14933;SDS011;7560;51.364;12.384;2023-07-31T04:13:51;5.22;;;1.92;;
14933;SDS011;7560;51.364;12.384;2023-07-31T04:18:52;3.63;;;2.30;;
14933;SDS011;7560;51.364;12.384;2023-07-31T04:23:54;4.00;;;2.20;;
14933;SDS011;7560;51.364;12.384;2023-07-31T04:28:57;4.22;;;2.13;;
14933;SDS011;7560;51.364;12.384;2023-07-31T04:33:59;6.07;;;2.10;;
14933;SDS011;7560;51.364;12.384;2023-07-31T04:39:01;3.15;;;2.10;;
14933;SDS011;7560;51.364;12.384;2023-07-31T04:44:03;3.10;;;1.98;;
14933;SDS011;7560;51.364;12.384;2023-07-31T04:49:05;6.05;;;2.30;;
14933;SDS011;7560;51.364;12.384;2023-07-31T04:54:06;5.10;;;2.20;;
14933;SDS011;7560;51.364;12.384;2023-07-31T04:59:08;4.38;;;2.47;;
14933;SDS011;7560;51.364;12.384;2023-07-31T05:04:11;6.78;;;2.30;;
14933;SDS011;7560;51.364;12.384;2023-07-31T05:09:14;3.75;;;2.08;;
14933;SDS011;7560;51.364;12.384;2023-07-31T05:14:16;7.95;;;3.58;;
14933;SDS011;7560;51.364;12.384;2023-07-31T05:19:18;4.57;;;2.50;;
14933;SDS011;7560;51.364;12.384;2023-07-31T05:24:19;3.90;;;2.40;;
14933;SDS011;7560;51.364;12.384;2023-07-31T05:29:21;3.95;;;2.50;;
14933;SDS011;7560;51.364;12.384;2023-07-31T05:34:23;4.68;;;2.42;;
14933;SDS011;7560;51.364;12.384;2023-07-31T05:39:25;3.90;;;2.38;;
14933;SDS011;7560;51.364;12.384;2023-07-31T05:44:26;4.47;;;2.47;;
14933;SDS011;7560;51.364;12.384;2023-07-31T05:49:28;5.80;;;2.85;;
14933;SDS011;7560;51.364;12.384;2023-07-31T05:54:31;4.15;;;2.50;;
14933;SDS011;7560;51.364;12.384;2023-07-31T05:59:33;3.85;;;2.63;;
14933;SDS011;7560;51.364;12.384;2023-07-31T06:04:35;5.22;;;2.30;;
14933;SDS011;7560;51.364;12.384;2023-07-31T06:09:37;6.05;;;2.42;;
14933;SDS011;7560;51.364;12.384;2023-07-31T06:14:39;5.28;;;2.30;;
14933;SDS011;7560;51.364;12.384;2023-07-31T06:19:41;4.22;;;2.50;;
14933;SDS011;7560;51.364;12.384;2023-07-31T06:24:42;4.25;;;2.35;;
14933;SDS011;7560;51.364;12.384;2023-07-31T06:29:44;7.18;;;2.70;;
14933;SDS011;7560;51.364;12.384;2023-07-31T06:34:46;5.57;;;2.10;;
14933;SDS011;7560;51.364;12.384;2023-07-31T06:39:48;5.68;;;2.50;;
14933;SDS011;7560;51.364;12.384;2023-07-31T06:44:50;5.20;;;2.65;;
14933;SDS011;7560;51.364;12.384;2023-07-31T06:49:52;6.88;;;2.22;;
14933;SDS011;7560;51.364;12.384;2023-07-31T06:55:16;4.40;;;2.20;;
14933;SDS011;7560;51.364;12.384;2023-07-31T07:00:20;3.75;;;2.45;;
14933;SDS011;7560;51.364;12.384;2023-07-31T07:05:23;3.38;;;2.40;;
14933;SDS011;7560;51.364;12.384;2023-07-31T07:10:25;4.90;;;2.72;;
14933;SDS011;7560;51.364;12.384;2023-07-31T07:15:27;5.75;;;2.88;;
14933;SDS011;7560;51.364;12.384;2023-07-31T07:20:30;6.15;;;2.38;;
14933;SDS011;7560;51.364;12.384;2023-07-31T07:25:31;7.38;;;2.90;;
14933;SDS011;7560;51.364;12.384;2023-07-31T07:30:33;4.20;;;2.17;;
14933;SDS011;7560;51.364;12.384;2023-07-31T07:35:36;3.75;;;2.42;;
14933;SDS011;7560;51.364;12.384;2023-07-31T07:40:38;3.85;;;2.25;;
14933;SDS011;7560;51.364;12.384;2023-07-31T07:45:40;6.88;;;2.30;;
14933;SDS011;7560;51.364;12.384;2023-07-31T07:50:42;5.70;;;2.53;;
14933;SDS011;7560;51.364;12.384;2023-07-31T07:55:44;3.75;;;2.20;;
14933;SDS011;7560;51.364;12.384;2023-07-31T08:00:50;5.32;;;2.63;;
14933;SDS011;7560;51.364;12.384;2023-07-31T08:05:52;5.72;;;2.60;;
14933;SDS011;7560;51.364;12.384;2023-07-31T08:11:00;4.88;;;2.60;;
14933;SDS011;7560;51.364;12.384;2023-07-31T08:16:02;4.05;;;2.33;;
14933;SDS011;7560;51.364;12.384;2023-07-31T08:21:05;4.05;;;2.40;;
14933;SDS011;7560;51.364;12.384;2023-07-31T08:26:06;4.60;;;2.30;;
14933;SDS011;7560;51.364;12.384;2023-07-31T08:31:08;4.88;;;2.50;;
14933;SDS011;7560;51.364;12.384;2023-07-31T08:36:10;5.50;;;2.72;;
14933;SDS011;7560;51.364;12.384;2023-07-31T08:41:12;3.25;;;2.40;;
14933;SDS011;7560;51.364;12.384;2023-07-31T08:46:14;5.07;;;2.78;;
14933;SDS011;7560;51.364;12.384;2023-07-31T08:51:17;4.88;;;2.55;;
14933;SDS011;7560;51.364;12.384;2023-07-31T08:56:18;4.30;;;2.53;;
14933;SDS011;7560;51.364;12.384;2023-07-31T09:01:21;3.50;;;2.38;;
14933;SDS011;7560;51.364;12.384;2023-07-31T09:06:24;6.38;;;2.50;;
14933;SDS011;7560;51.364;12.384;2023-07-31T09:11:28;4.18;;;2.63;;
14933;SDS011;7560;51.364;12.384;2023-07-31T09:16:30;5.95;;;2.35;;
14933;SDS011;7560;51.364;12.384;2023-07-31T09:21:34;3.70;;;2.40;;
14933;SDS011;7560;51.364;12.384;2023-07-31T09:26:49;4.32;;;2.05;;
14933;SDS011;7560;51.364;12.384;2023-07-31T09:31:56;3.53;;;2.30;;
14933;SDS011;7560;51.364;12.384;2023-07-31T09:37:01;7.40;;;2.10;;
14933;SDS011;7560;51.364;12.384;2023-07-31T09:42:03;5.15;;;2.80;;
14933;SDS011;7560;51.364;12.384;2023-07-31T09:47:05;5.63;;;2.30;;
14933;SDS011;7560;51.364;12.384;2023-07-31T09:52:11;4.10;;;2.53;;
14933;SDS011;7560;51.364;12.384;2023-07-31T09:57:14;5.65;;;2.40;;
14933;SDS011;7560;51.364;12.384;2023-07-31T10:02:20;5.07;;;2.90;;
14933;SDS011;7560;51.364;12.384;2023-07-31T10:07:24;5.57;;;2.70;;
14933;SDS011;7560;51.364;12.384;2023-07-31T10:12:28;6.22;;;3.40;;
14933;SDS011;7560;51.364;12.384;2023-07-31T10:17:33;5.55;;;2.22;;
14933;SDS011;7560;51.364;12.384;2023-07-31T10:22:36;4.47;;;2.30;;
14933;SDS011;7560;51.364;12.384;2023-07-31T10:27:39;4.95;;;2.60;;
14933;SDS011;7560;51.364;12.384;2023-07-31T10:32:41;2.85;;;1.92;;
14933;SDS011;7560;51.364;12.384;2023-07-31T10:37:45;5.35;;;2.30;;
14933;SDS011;7560;51.364;12.384;2023-07-31T10:42:47;3.38;;;2.20;;
14933;SDS011;7560;51.364;12.384;2023-07-31T10:48:00;3.92;;;2.50;;
14933;SDS011;7560;51.364;12.384;2023-07-31T10:53:03;3.33;;;2.42;;
14933;SDS011;7560;51.364;12.384;2023-07-31T10:58:09;4.63;;;2.50;;
14933;SDS011;7560;51.364;12.384;2023-07-31T11:03:18;4.22;;;2.22;;
14933;SDS011;7560;51.364;12.384;2023-07-31T11:08:24;5.35;;;2.58;;
14933;SDS011;7560;51.364;12.384;2023-07-31T11:13:31;4.32;;;2.30;;
14933;SDS011;7560;51.364;12.384;2023-07-31T11:18:34;3.63;;;2.60;;
14933;SDS011;7560;51.364;12.384;2023-07-31T11:23:36;5.53;;;2.65;;
14933;SDS011;7560;51.364;12.384;2023-07-31T11:28:39;6.90;;;2.72;;
14933;SDS011;7560;51.364;12.384;2023-07-31T11:33:44;5.10;;;2.40;;
14933;SDS011;7560;51.364;12.384;2023-07-31T11:38:46;3.28;;;2.33;;
14933;SDS011;7560;51.364;12.384;2023-07-31T11:43:48;4.45;;;2.40;;
14933;SDS011;7560;51.364;12.384;2023-07-31T11:48:50;7.13;;;2.80;;
14933;SDS011;7560;51.364;12.384;2023-07-31T11:53:52;3.85;;;2.55;;
14933;SDS011;7560;51.364;12.384;2023-07-31T11:58:58;4.43;;;2.60;;
14933;SDS011;7560;51.364;12.384;2023-07-31T12:04:03;3.65;;;2.60;;
14933;SDS011;7560;51.364;12.384;2023-07-31T12:09:05;4.85;;;2.58;;
14933;SDS011;7560;51.364;12.384;2023-07-31T12:14:07;4.53;;;2.45;;
14933;SDS011;7560;51.364;12.384;2023-07-31T12:19:10;6.65;;;3.15;;
14933;SDS011;7560;51.364;12.384;2023-07-31T12:24:12;2.97;;;2.20;;
14933;SDS011;7560;51.364;12.384;2023-07-31T12:29:14;3.97;;;2.42;;
14933;SDS011;7560;51.364;12.384;2023-07-31T12:34:17;5.80;;;2.40;;
14933;SDS011;7560;51.364;12.384;2023-07-31T12:39:19;6.07;;;2.70;;
14933;SDS011;7560;51.364;12.384;2023-07-31T12:44:21;4.15;;;2.47;;
14933;SDS011;7560;51.364;12.384;2023-07-31T12:49:23;5.03;;;2.70;;
14933;SDS011;7560;51.364;12.384;2023-07-31T12:54:25;5.55;;;2.58;;
14933;SDS011;7560;51.364;12.384;2023-07-31T12:59:35;5.85;;;2.67;;
14933;SDS011;7560;51.364;12.384;2023-07-31T13:04:37;3.92;;;2.60;;
14933;SDS011;7560;51.364;12.384;2023-07-31T13:09:38;5.13;;;2.50;;
14933;SDS011;7560;51.364;12.384;2023-07-31T13:14:40;5.35;;;3.00;;
14933;SDS011;7560;51.364;12.384;2023-07-31T13:19:42;5.72;;;2.72;;
14933;SDS011;7560;51.364;12.384;2023-07-31T13:24:44;5.47;;;2.47;;
14933;SDS011;7560;51.364;12.384;2023-07-31T13:29:46;4.22;;;2.35;;
14933;SDS011;7560;51.364;12.384;2023-07-31T13:34:48;2.65;;;2.03;;
14933;SDS011;7560;51.364;12.384;2023-07-31T13:39:53;2.95;;;1.90;;
14933;SDS011;7560;51.364;12.384;2023-07-31T13:44:56;3.55;;;2.15;;
14933;SDS011;7560;51.364;12.384;2023-07-31T13:49:57;3.75;;;2.33;;
14933;SDS011;7560;51.364;12.384;2023-07-31T13:54:59;4.07;;;2.10;;
14933;SDS011;7560;51.364;12.384;2023-07-31T14:00:01;5.00;;;2.30;;
14933;SDS011;7560;51.364;12.384;2023-07-31T14:05:03;4.00;;;2.17;;
14933;SDS011;7560;51.364;12.384;2023-07-31T14:10:05;5.75;;;2.58;;
14933;SDS011;7560;51.364;12.384;2023-07-31T14:15:08;3.30;;;2.20;;
14933;SDS011;7560;51.364;12.384;2023-07-31T14:20:10;4.45;;;2.03;;
14933;SDS011;7560;51.364;12.384;2023-07-31T14:25:13;4.78;;;2.45;;
14933;SDS011;7560;51.364;12.384;2023-07-31T14:30:15;4.07;;;2.17;;
14933;SDS011;7560;51.364;12.384;2023-07-31T14:35:17;3.33;;;2.20;;
14933;SDS011;7560;51.364;12.384;2023-07-31T14:40:19;3.03;;;2.30;;
14933;SDS011;7560;51.364;12.384;2023-07-31T14:45:21;3.15;;;1.83;;
14933;SDS011;7560;51.364;12.384;2023-07-31T14:50:22;2.63;;;2.20;;
14933;SDS011;7560;51.364;12.384;2023-07-31T14:55:26;3.55;;;2.35;;
14933;SDS011;7560;51.364;12.384;2023-07-31T15:00:27;3.25;;;1.70;;
14933;SDS011;7560;51.364;12.384;2023-07-31T15:05:29;2.95;;;1.90;;
14933;SDS011;7560;51.364;12.384;2023-07-31T15:10:31;3.80;;;2.30;;
14933;SDS011;7560;51.364;12.384;2023-07-31T15:15:33;3.25;;;2.08;;
14933;SDS011;7560;51.364;12.384;2023-07-31T15:20:35;3.10;;;2.03;;
14933;SDS011;7560;51.364;12.384;2023-07-31T15:25:37;2.88;;;1.75;;
14933;SDS011;7560;51.364;12.384;2023-07-31T15:30:38;4.68;;;1.92;;
14933;SDS011;7560;51.364;12.384;2023-07-31T15:35:40;7.75;;;2.15;;
14933;SDS011;7560;51.364;12.384;2023-07-31T15:40:43;4.55;;;2.33;;
14933;SDS011;7560;51.364;12.384;2023-07-31T15:45:45;2.80;;;2.00;;
14933;SDS011;7560;51.364;12.384;2023-07-31T15:50:46;4.07;;;2.35;;
14933;SDS011;7560;51.364;12.384;2023-07-31T15:55:48;3.67;;;2.38;;
14933;SDS011;7560;51.364;12.384;2023-07-31T16:00:50;4.85;;;2.53;;
14933;SDS011;7560;51.364;12.384;2023-07-31T16:05:52;3.65;;;2.35;;
14933;SDS011;7560;51.364;12.384;2023-07-31T16:10:54;4.07;;;2.65;;
14933;SDS011;7560;51.364;12.384;2023-07-31T16:15:57;5.03;;;2.85;;
14933;SDS011;7560;51.364;12.384;2023-07-31T16:21:00;6.45;;;2.88;;
14933;SDS011;7560;51.364;12.384;2023-07-31T16:26:02;7.00;;;2.70;;
14933;SDS011;7560;51.364;12.384;2023-07-31T16:31:03;6.28;;;2.88;;
14933;SDS011;7560;51.364;12.384;2023-07-31T16:36:05;4.78;;;2.75;;
14933;SDS011;7560;51.364;12.384;2023-07-31T16:41:07;4.78;;;2.88;;
14933;SDS011;7560;51.364;12.384;2023-07-31T16:46:09;4.65;;;2.25;;
14933;SDS011;7560;51.364;12.384;2023-07-31T16:51:11;5.22;;;3.03;;
14933;SDS011;7560;51.364;12.384;2023-07-31T16:56:15;4.60;;;2.58;;
14933;SDS011;7560;51.364;12.384;2023-07-31T17:01:16;4.03;;;2.50;;
14933;SDS011;7560;51.364;12.384;2023-07-31T17:06:18;5.05;;;2.72;;
14933;SDS011;7560;51.364;12.384;2023-07-31T17:11:20;4.63;;;2.47;;
14933;SDS011;7560;51.364;12.384;2023-07-31T17:16:22;5.25;;;2.78;;
14933;SDS011;7560;51.364;12.384;2023-07-31T17:21:25;4.50;;;2.60;;
14933;SDS011;7560;51.364;12.384;2023-07-31T17:26:28;4.40;;;3.00;;
14933;SDS011;7560;51.364;12.384;2023-07-31T17:31:29;3.90;;;2.67;;
14933;SDS011;7560;51.364;12.384;2023-07-31T17:36:31;6.40;;;2.70;;
14933;SDS011;7560;51.364;12.384;2023-07-31T17:41:34;5.45;;;2.70;;
14933;SDS011;7560;51.364;12.384;2023-07-31T17:46:35;4.30;;;2.47;;
14933;SDS011;7560;51.364;12.384;2023-07-31T17:51:38;5.45;;;2.38;;
14933;SDS011;7560;51.364;12.384;2023-07-31T17:56:41;5.60;;;2.58;;
14933;SDS011;7560;51.364;12.384;2023-07-31T18:01:43;4.30;;;2.47;;
14933;SDS011;7560;51.364;12.384;2023-07-31T18:06:44;5.40;;;2.95;;
14933;SDS011;7560;51.364;12.384;2023-07-31T18:11:46;5.43;;;2.75;;
14933;SDS011;7560;51.364;12.384;2023-07-31T18:16:48;5.40;;;2.95;;
14933;SDS011;7560;51.364;12.384;2023-07-31T18:21:50;4.40;;;2.78;;
14933;SDS011;7560;51.364;12.384;2023-07-31T18:26:51;5.03;;;2.80;;
14933;SDS011;7560;51.364;12.384;2023-07-31T18:31:53;4.57;;;3.10;;
14933;SDS011;7560;51.364;12.384;2023-07-31T18:36:55;7.40;;;2.80;;
14933;SDS011;7560;51.364;12.384;2023-07-31T18:41:57;5.32;;;3.05;;
14933;SDS011;7560;51.364;12.384;2023-07-31T18:46:58;6.05;;;3.50;;
14933;SDS011;7560;51.364;12.384;2023-07-31T18:52:01;5.72;;;2.83;;
14933;SDS011;7560;51.364;12.384;2023-07-31T18:57:04;6.43;;;3.08;;
14933;SDS011;7560;51.364;12.384;2023-07-31T19:02:06;5.40;;;3.22;;
14933;SDS011;7560;51.364;12.384;2023-07-31T19:07:08;5.78;;;3.10;;
14933;SDS011;7560;51.364;12.384;2023-07-31T19:12:10;4.30;;;3.03;;
14933;SDS011;7560;51.364;12.384;2023-07-31T19:17:13;6.65;;;2.63;;
14933;SDS011;7560;51.364;12.384;2023-07-31T19:22:14;7.65;;;3.17;;
14933;SDS011;7560;51.364;12.384;2023-07-31T19:27:16;6.60;;;3.05;;
14933;SDS011;7560;51.364;12.384;2023-07-31T19:32:18;7.55;;;2.90;;
14933;SDS011;7560;51.364;12.384;2023-07-31T19:37:20;4.60;;;2.63;;
14933;SDS011;7560;51.364;12.384;2023-07-31T19:42:21;3.70;;;2.80;;
14933;SDS011;7560;51.364;12.384;2023-07-31T19:47:23;4.82;;;3.17;;
14933;SDS011;7560;51.364;12.384;2023-07-31T19:52:25;5.07;;;3.13;;
14933;SDS011;7560;51.364;12.384;2023-07-31T19:57:27;6.75;;;3.08;;
14933;SDS011;7560;51.364;12.384;2023-07-31T20:02:28;4.25;;;2.90;;
14933;SDS011;7560;51.364;12.384;2023-07-31T20:07:30;9.40;;;3.70;;
14933;SDS011;7560;51.364;12.384;2023-07-31T20:12:32;5.10;;;3.10;;
14933;SDS011;7560;51.364;12.384;2023-07-31T20:17:34;8.45;;;3.20;;
14933;SDS011;7560;51.364;12.384;2023-07-31T20:22:36;8.90;;;2.97;;
14933;SDS011;7560;51.364;12.384;2023-07-31T20:27:38;5.13;;;3.15;;
14933;SDS011;7560;51.364;12.384;2023-07-31T20:32:39;4.70;;;3.03;;
14933;SDS011;7560;51.364;12.384;2023-07-31T20:37:41;7.75;;;3.22;;
14933;SDS011;7560;51.364;12.384;2023-07-31T20:42:43;4.28;;;2.97;;
14933;SDS011;7560;51.364;12.384;2023-07-31T20:47:56;6.20;;;3.22;;
14933;SDS011;7560;51.364;12.384;2023-07-31T20:53:01;5.97;;;2.55;;
14933;SDS011;7560;51.364;12.384;2023-07-31T20:58:03;6.10;;;2.88;;
14933;SDS011;7560;51.364;12.384;2023-07-31T21:03:05;6.50;;;2.90;;
14933;SDS011;7560;51.364;12.384;2023-07-31T21:08:07;4.45;;;2.92;;
14933;SDS011;7560;51.364;12.384;2023-07-31T21:13:09;5.57;;;2.97;;
14933;SDS011;7560;51.364;12.384;2023-07-31T21:18:10;7.25;;;3.35;;
14933;SDS011;7560;51.364;12.384;2023-07-31T21:23:13;5.45;;;2.70;;
14933;SDS011;7560;51.364;12.384;2023-07-31T21:28:15;3.88;;;2.53;;
14933;SDS011;7560;51.364;12.384;2023-07-31T21:33:17;6.63;;;2.50;;
14933;SDS011;7560;51.364;12.384;2023-07-31T21:38:18;5.43;;;2.47;;
14933;SDS011;7560;51.364;12.384;2023-07-31T21:43:21;5.15;;;2.75;;
14933;SDS011;7560;51.364;12.384;2023-07-31T21:48:22;4.20;;;2.60;;
14933;SDS011;7560;51.364;12.384;2023-07-31T21:53:25;3.80;;;2.90;;
14933;SDS011;7560;51.364;12.384;2023-07-31T21:58:27;4.53;;;2.60;;
14933;SDS011;7560;51.364;12.384;2023-07-31T22:03:28;5.47;;;2.80;;
14933;SDS011;7560;51.364;12.384;2023-07-31T22:08:30;4.68;;;2.88;;
14933;SDS011;7560;51.364;12.384;2023-07-31T22:13:32;4.00;;;2.90;;
14933;SDS011;7560;51.364;12.384;2023-07-31T22:18:35;3.65;;;2.80;;
14933;SDS011;7560;51.364;12.384;2023-07-31T22:23:37;3.42;;;2.63;;
14933;SDS011;7560;51.364;12.384;2023-07-31T22:28:38;4.47;;;2.97;;
14933;SDS011;7560;51.364;12.384;2023-07-31T22:33:40;4.35;;;3.00;;
14933;SDS011;7560;51.364;12.384;2023-07-31T22:38:42;4.32;;;3.10;;
14933;SDS011;7560;51.364;12.384;2023-07-31T22:43:44;6.53;;;3.38;;
14933;SDS011;7560;51.364;12.384;2023-07-31T22:48:45;4.25;;;3.20;;
14933;SDS011;7560;51.364;12.384;2023-07-31T22:53:48;5.53;;;3.22;;
14933;SDS011;7560;51.364;12.384;2023-07-31T22:58:50;5.32;;;3.08;;
14933;SDS011;7560;51.364;12.384;2023-07-31T23:03:51;5.55;;;3.20;;
14933;SDS011;7560;51.364;12.384;2023-07-31T23:08:53;3.80;;;3.05;;
14933;SDS011;7560;51.364;12.384;2023-07-31T23:13:55;4.03;;;2.92;;
14933;SDS011;7560;51.364;12.384;2023-07-31T23:18:57;7.00;;;3.80;;
14933;SDS011;7560;51.364;12.384;2023-07-31T23:23:59;5.63;;;3.15;;
14933;SDS011;7560;51.364;12.384;2023-07-31T23:29:00;5.72;;;3.25;;
14933;SDS011;7560;51.364;12.384;2023-07-31T23:34:02;5.40;;;3.70;;
14933;SDS011;7560;51.364;12.384;2023-07-31T23:39:04;5.85;;;3.63;;
14933;SDS011;7560;51.364;12.384;2023-07-31T23:44:06;6.68;;;3.75;;
14933;SDS011;7560;51.364;12.384;2023-07-31T23:49:08;7.57;;;3.72;;
14933;SDS011;7560;51.364;12.384;2023-07-31T23:54:10;7.13;;;3.55;;
14933;SDS011;7560;51.364;12.384;2023-07-31T23:59:13;6.82;;;3.45;;
